Rio Blanco — D5BO9 — position and weather

sailwx.info

Track history (hours):
 
Tides and Currents Weather Stations Pressure Air Temp Water Temp Dewpoint Dewpoint Depression Visibility Wind Speed Wind Dir Waves Ship Positions

Rio Blanco

Last reported at 2015-Jul-30 11:00 UTC. Time now 2015-Aug-01 07:45 UTC.
Position N 12°00' E 044°36'.

Length 286 m; draft 13.2 m.

Type: Ship (hazmat cat A). MMSI: 636092395.

Wind from 190 at 5 knots

Waves 0.5 meters (2 feet), 9 second period

Barometer 1001.5 mb
Air temperature 39.7 ° C
Visibility: greater than 5.4 NM
Dewpoint 25.5 ° C
Water temperature 30.0 ° C

Date/timePositionNaut miles runAvg speedWind from/ knotsBaromVisibWave heightAir tempDewpointWater temp
2015-Jul-30 11:00N 12°00' E 044°36'18015.0 190 / 51001.5 5.4 0.539.725.530.0
2015-Jul-29 23:00N 14°00' E 042°18'56611.8 270 / 81002.510.8 0.532.326.832.0
2015-Jul-27 23:00N 22°30' E 038°00'37916.5 250 / 101001.910.8 1.030.227.630.0
2015-Jul-27 00:00N 27°36' E 033°54'22012.6 330 / 161002.710.8 1.031.418.727.0
2015-Jul-26 06:33N 30°59' E 032°19'12 9.4
2015-Jul-26 05:17N 31°11' E 032°20'15 8.4
2015-Jul-26 03:33N 31°26' E 032°23'5 4.6
2015-Jul-26 02:30N 31°26' E 032°17'1 0.1
2015-Jul-25 19:16N 31°25' E 032°17'0 0.2
2015-Jul-25 16:26N 31°25' E 032°18'1111.9
2015-Jul-25 15:33N 31°34' E 032°10'1615.8
2015-Jul-25 14:32N 31°45' E 031°56'1515.5
2015-Jul-25 13:33N 31°51' E 031°40'1616.1
2015-Jul-25 12:32N 31°55' E 031°21'1616.8
2015-Jul-25 11:34N 31°60' E 031°03'1616.2
2015-Jul-25 10:34N 32°08' E 030°46'1716.5
2015-Jul-25 09:32N 32°13' E 030°27'1716.8
2015-Jul-25 08:31N 32°19' E 030°08'2117.1
2015-Jul-25 07:18N 32°25' E 029°45'1416.7
2015-Jul-25 06:27N 32°30' E 029°29'1516.7
2015-Jul-25 05:33N 32°35' E 029°12'1716.7
2015-Jul-25 04:33N 32°40' E 028°53'1816.8
2015-Jul-25 03:28N 32°46' E 028°32'5917.0
2015-Jul-25 00:00N 33°00' E 027°24'31917.0 250 / 61010.010.8 0.526.322.826.0
2015-Jul-24 05:13N 34°47' E 021°22'1517.0
2015-Jul-24 04:21N 34°52' E 021°05'8016.8
2015-Jul-23 23:33N 35°18' E 019°32'14517.7
2015-Jul-23 15:20N 36°04' E 016°42'1417.9
2015-Jul-23 14:33N 36°09' E 016°26'4818.6
2015-Jul-23 12:00N 36°24' E 015°30'714.3 280 / 51010.0 2.2 0.533.423.128.0
2015-Jul-23 11:31N 36°27' E 015°22'1717.2
2015-Jul-23 10:33N 36°31' E 015°02'1717.3
2015-Jul-23 09:34N 36°36' E 014°42'1717.0
2015-Jul-23 08:34N 36°43' E 014°23'1717.4
2015-Jul-23 07:34N 36°51' E 014°03'1817.5
2015-Jul-23 06:34N 36°59' E 013°44'1817.6
2015-Jul-23 05:33N 37°08' E 013°25'1717.4
2015-Jul-23 04:33N 37°16' E 013°05'1717.2
2015-Jul-23 03:33N 37°20' E 012°44'1717.4
2015-Jul-23 02:34N 37°27' E 012°24'1818.2
2015-Jul-23 01:33N 37°36' E 012°05'1817.9
2015-Jul-23 00:33N 37°46' E 011°46'1717.6
2015-Jul-22 23:34N 37°56' E 011°27'1817.7
2015-Jul-22 22:33N 38°05' E 011°08'1817.6
2015-Jul-22 21:33N 38°14' E 010°49'1717.7
2015-Jul-22 20:34N 38°24' E 010°30'1717.4
2015-Jul-22 19:33N 38°33' E 010°12'1717.3
2015-Jul-22 18:33N 38°43' E 009°53'1717.3
2015-Jul-22 17:33N 38°52' E 009°34'1717.3
2015-Jul-22 16:34N 39°01' E 009°15'1211.6
2015-Jul-22 15:33N 39°11' E 009°06'3 2.7
2015-Jul-22 14:33N 39°13' E 009°04'0 0.0
2015-Jul-22 13:33N 39°13' E 009°04'0 0.0
2015-Jul-22 12:31N 39°13' E 009°04'0 0.0
2015-Jul-22 11:31N 39°13' E 009°04'0 0.0
2015-Jul-22 10:31N 39°13' E 009°04'0 0.0
2015-Jul-22 09:31N 39°13' E 009°04'0 0.0
2015-Jul-22 08:31N 39°13' E 009°04'0 0.0
2015-Jul-22 07:28N 39°13' E 009°04'0 0.0
2015-Jul-22 06:31N 39°13' E 009°04'0 0.0
2015-Jul-22 05:31N 39°13' E 009°04'0 0.0
2015-Jul-22 04:31N 39°13' E 009°04'0 0.0
2015-Jul-22 03:31N 39°13' E 009°04'0 0.0
2015-Jul-22 02:31N 39°13' E 009°04'0 0.0
2015-Jul-22 01:31N 39°13' E 009°04'0 0.0
2015-Jul-22 00:31N 39°13' E 009°04'0 0.0
2015-Jul-21 23:31N 39°13' E 009°04'0 0.0
2015-Jul-21 22:31N 39°13' E 009°04'0 0.0
2015-Jul-21 21:31N 39°13' E 009°04'0 0.0
2015-Jul-21 20:31N 39°13' E 009°04'0 0.0
2015-Jul-21 19:31N 39°13' E 009°04'0 0.0
2015-Jul-21 18:31N 39°13' E 009°04'0 0.0
2015-Jul-21 17:31N 39°13' E 009°04'0 0.2
2015-Jul-21 16:34N 39°13' E 009°05'5 5.4
2015-Jul-21 15:34N 39°07' E 009°06'1111.5
2015-Jul-21 14:33N 38°56' E 009°05'1717.2
2015-Jul-21 13:34N 38°45' E 008°48'1818.0
2015-Jul-21 12:33N 38°40' E 008°26'1918.4
2015-Jul-21 11:33N 38°35' E 008°03'1918.9
2015-Jul-21 10:33N 38°30' E 007°39'1919.1
2015-Jul-21 09:34N 38°24' E 007°16'2318.9
2015-Jul-21 08:22N 38°18' E 006°49'3719.7
2015-Jul-21 06:28N 38°08' E 006°03'2720.0
2015-Jul-21 05:08N 38°01' E 005°30'1919.8
2015-Jul-21 04:11N 37°55' E 005°07'1419.8
2015-Jul-21 03:29N 37°51' E 004°51'2019.6
2015-Jul-21 02:28N 37°46' E 004°27'1819.4
2015-Jul-21 01:34N 37°41' E 004°05'2019.5
2015-Jul-21 00:33N 37°36' E 003°41'1526.1
2015-Jul-21 00:00N 37°30' E 003°24'512.0 080 / 81014.610.8 0.526.723.226.0
2015-Jul-20 23:33N 37°30' E 003°17'2019.7
2015-Jul-20 22:34N 37°25' E 002°54'2019.6
2015-Jul-20 21:34N 37°19' E 002°30'1919.3
2015-Jul-20 20:33N 37°13' E 002°07'1919.3
2015-Jul-20 19:33N 37°08' E 001°43'2020.1
2015-Jul-20 18:33N 37°03' E 001°19'1919.7
2015-Jul-20 17:34N 36°57' E 000°56'2019.6
2015-Jul-20 16:33N 36°52' E 000°32'2019.7
2015-Jul-20 15:33N 36°46' E 000°08'2019.8
2015-Jul-20 14:33N 36°41' W 000°16'1919.6
2015-Jul-20 13:33N 36°35' W 000°39'2019.8
2015-Jul-20 12:33N 36°29' W 001°02'916.5
2015-Jul-20 12:00N 36°24' W 001°12'1330.7 999 / 21015.110.8 29.922.927.0
2015-Jul-20 11:33N 36°23' W 001°29'  
Track history (hours):
 
Tides and Currents Weather Stations Pressure Air Temp Water Temp Dewpoint Dewpoint Depression Visibility Wind Speed Wind Dir Waves Ship Positions

Rio Blanco

Last reported at 2015-Jul-30 11:00 UTC. Time now 2015-Aug-01 07:45 UTC.
Position N 12°00' E 044°36'.

Length 286 m; draft 13.2 m.

Type: Ship (hazmat cat A). MMSI: 636092395.

Wind from 190 at 5 knots

Waves 0.5 meters (2 feet), 9 second period

Barometer 1001.5 mb
Air temperature 39.7 ° C
Visibility: greater than 5.4 NM
Dewpoint 25.5 ° C
Water temperature 30.0 ° C

Date/timePositionNaut miles runAvg speedWind from/ knotsBaromVisibWave heightAir tempDewpointWater temp
2015-Jul-30 11:00N 12°00' E 044°36'18015.0 190 / 51001.5 5.4 0.539.725.530.0
2015-Jul-29 23:00N 14°00' E 042°18'56611.8 270 / 81002.510.8 0.532.326.832.0
2015-Jul-27 23:00N 22°30' E 038°00'37916.5 250 / 101001.910.8 1.030.227.630.0
2015-Jul-27 00:00N 27°36' E 033°54'22012.6 330 / 161002.710.8 1.031.418.727.0
2015-Jul-26 06:33N 30°59' E 032°19'12 9.4
2015-Jul-26 05:17N 31°11' E 032°20'15 8.4
2015-Jul-26 03:33N 31°26' E 032°23'5 4.6
2015-Jul-26 02:30N 31°26' E 032°17'1 0.1
2015-Jul-25 19:16N 31°25' E 032°17'0 0.2
2015-Jul-25 16:26N 31°25' E 032°18'1111.9
2015-Jul-25 15:33N 31°34' E 032°10'1615.8
2015-Jul-25 14:32N 31°45' E 031°56'1515.5
2015-Jul-25 13:33N 31°51' E 031°40'1616.1
2015-Jul-25 12:32N 31°55' E 031°21'1616.8
2015-Jul-25 11:34N 31°60' E 031°03'1616.2
2015-Jul-25 10:34N 32°08' E 030°46'1716.5
2015-Jul-25 09:32N 32°13' E 030°27'1716.8
2015-Jul-25 08:31N 32°19' E 030°08'2117.1
2015-Jul-25 07:18N 32°25' E 029°45'1416.7
2015-Jul-25 06:27N 32°30' E 029°29'1516.7
2015-Jul-25 05:33N 32°35' E 029°12'1716.7
2015-Jul-25 04:33N 32°40' E 028°53'1816.8
2015-Jul-25 03:28N 32°46' E 028°32'5917.0
2015-Jul-25 00:00N 33°00' E 027°24'31917.0 250 / 61010.010.8 0.526.322.826.0
2015-Jul-24 05:13N 34°47' E 021°22'1517.0
2015-Jul-24 04:21N 34°52' E 021°05'8016.8
2015-Jul-23 23:33N 35°18' E 019°32'14517.7
2015-Jul-23 15:20N 36°04' E 016°42'1417.9
2015-Jul-23 14:33N 36°09' E 016°26'4818.6
2015-Jul-23 12:00N 36°24' E 015°30'714.3 280 / 51010.0 2.2 0.533.423.128.0
2015-Jul-23 11:31N 36°27' E 015°22'1717.2
2015-Jul-23 10:33N 36°31' E 015°02'1717.3
2015-Jul-23 09:34N 36°36' E 014°42'1717.0
2015-Jul-23 08:34N 36°43' E 014°23'1717.4
2015-Jul-23 07:34N 36°51' E 014°03'1817.5
2015-Jul-23 06:34N 36°59' E 013°44'1817.6
2015-Jul-23 05:33N 37°08' E 013°25'1717.4
2015-Jul-23 04:33N 37°16' E 013°05'1717.2
2015-Jul-23 03:33N 37°20' E 012°44'1717.4
2015-Jul-23 02:34N 37°27' E 012°24'1818.2
2015-Jul-23 01:33N 37°36' E 012°05'1817.9
2015-Jul-23 00:33N 37°46' E 011°46'1717.6
2015-Jul-22 23:34N 37°56' E 011°27'1817.7
2015-Jul-22 22:33N 38°05' E 011°08'1817.6
2015-Jul-22 21:33N 38°14' E 010°49'1717.7
2015-Jul-22 20:34N 38°24' E 010°30'1717.4
2015-Jul-22 19:33N 38°33' E 010°12'1717.3
2015-Jul-22 18:33N 38°43' E 009°53'1717.3
2015-Jul-22 17:33N 38°52' E 009°34'1717.3
2015-Jul-22 16:34N 39°01' E 009°15'1211.6
2015-Jul-22 15:33N 39°11' E 009°06'3 2.7
2015-Jul-22 14:33N 39°13' E 009°04'0 0.0
2015-Jul-22 13:33N 39°13' E 009°04'0 0.0
2015-Jul-22 12:31N 39°13' E 009°04'0 0.0
2015-Jul-22 11:31N 39°13' E 009°04'0 0.0
2015-Jul-22 10:31N 39°13' E 009°04'0 0.0
2015-Jul-22 09:31N 39°13' E 009°04'0 0.0
2015-Jul-22 08:31N 39°13' E 009°04'0 0.0
2015-Jul-22 07:28N 39°13' E 009°04'0 0.0
2015-Jul-22 06:31N 39°13' E 009°04'0 0.0
2015-Jul-22 05:31N 39°13' E 009°04'0 0.0
2015-Jul-22 04:31N 39°13' E 009°04'0 0.0
2015-Jul-22 03:31N 39°13' E 009°04'0 0.0
2015-Jul-22 02:31N 39°13' E 009°04'0 0.0
2015-Jul-22 01:31N 39°13' E 009°04'0 0.0
2015-Jul-22 00:31N 39°13' E 009°04'0 0.0
2015-Jul-21 23:31N 39°13' E 009°04'0 0.0
2015-Jul-21 22:31N 39°13' E 009°04'0 0.0
2015-Jul-21 21:31N 39°13' E 009°04'0 0.0
2015-Jul-21 20:31N 39°13' E 009°04'0 0.0
2015-Jul-21 19:31N 39°13' E 009°04'0 0.0
2015-Jul-21 18:31N 39°13' E 009°04'0 0.0
2015-Jul-21 17:31N 39°13' E 009°04'0 0.2
2015-Jul-21 16:34N 39°13' E 009°05'5 5.4
2015-Jul-21 15:34N 39°07' E 009°06'1111.5
2015-Jul-21 14:33N 38°56' E 009°05'1717.2
2015-Jul-21 13:34N 38°45' E 008°48'1818.0
2015-Jul-21 12:33N 38°40' E 008°26'1918.4
2015-Jul-21 11:33N 38°35' E 008°03'1918.9
2015-Jul-21 10:33N 38°30' E 007°39'1919.1
2015-Jul-21 09:34N 38°24' E 007°16'2318.9
2015-Jul-21 08:22N 38°18' E 006°49'3719.7
2015-Jul-21 06:28N 38°08' E 006°03'2720.0
2015-Jul-21 05:08N 38°01' E 005°30'1919.8
2015-Jul-21 04:11N 37°55' E 005°07'1419.8
2015-Jul-21 03:29N 37°51' E 004°51'2019.6
2015-Jul-21 02:28N 37°46' E 004°27'1819.4
2015-Jul-21 01:34N 37°41' E 004°05'2019.5
2015-Jul-21 00:33N 37°36' E 003°41'1526.1
2015-Jul-21 00:00N 37°30' E 003°24'512.0 080 / 81014.610.8 0.526.723.226.0
2015-Jul-20 23:33N 37°30' E 003°17'2019.7
2015-Jul-20 22:34N 37°25' E 002°54'2019.6
2015-Jul-20 21:34N 37°19' E 002°30'1919.3
2015-Jul-20 20:33N 37°13' E 002°07'1919.3
2015-Jul-20 19:33N 37°08' E 001°43'2020.1
2015-Jul-20 18:33N 37°03' E 001°19'1919.7
2015-Jul-20 17:34N 36°57' E 000°56'2019.6
2015-Jul-20 16:33N 36°52' E 000°32'2019.7
2015-Jul-20 15:33N 36°46' E 000°08'2019.8
2015-Jul-20 14:33N 36°41' W 000°16'1919.6
2015-Jul-20 13:33N 36°35' W 000°39'2019.8
2015-Jul-20 12:33N 36°29' W 001°02'916.5
2015-Jul-20 12:00N 36°24' W 001°12'1330.7 999 / 21015.110.8 29.922.927.0
2015-Jul-20 11:33N 36°23' W 001°29'  

Dump ship's entire track history